sensor_id;sensor_type;location;lat;lon;timestamp;P1;durP1;ratioP1;P2;durP2;ratioP2
84614;SDS011;74845;51.204;22.580;2024-02-21T00:00:49;10.38;;;9.45;;
84614;SDS011;74845;51.204;22.580;2024-02-21T00:03:16;9.07;;;8.27;;
84614;SDS011;74845;51.204;22.580;2024-02-21T00:05:43;9.18;;;8.27;;
84614;SDS011;74845;51.204;22.580;2024-02-21T00:08:10;9.32;;;8.40;;
84614;SDS011;74845;51.204;22.580;2024-02-21T00:10:37;9.55;;;8.60;;
84614;SDS011;74845;51.204;22.580;2024-02-21T00:13:04;9.45;;;8.60;;
84614;SDS011;74845;51.204;22.580;2024-02-21T00:15:30;7.43;;;6.78;;
84614;SDS011;74845;51.204;22.580;2024-02-21T00:17:57;8.18;;;7.53;;
84614;SDS011;74845;51.204;22.580;2024-02-21T00:20:24;8.07;;;7.28;;
84614;SDS011;74845;51.204;22.580;2024-02-21T00:22:53;6.78;;;6.10;;
84614;SDS011;74845;51.204;22.580;2024-02-21T00:25:20;7.70;;;7.05;;
84614;SDS011;74845;51.204;22.580;2024-02-21T00:27:47;7.13;;;6.43;;
84614;SDS011;74845;51.204;22.580;2024-02-21T00:30:14;8.80;;;6.22;;
84614;SDS011;74845;51.204;22.580;2024-02-21T00:32:41;8.05;;;7.22;;
84614;SDS011;74845;51.204;22.580;2024-02-21T00:35:08;7.25;;;6.53;;
84614;SDS011;74845;51.204;22.580;2024-02-21T00:37:35;7.07;;;6.47;;
84614;SDS011;74845;51.204;22.580;2024-02-21T00:40:01;6.68;;;5.68;;
84614;SDS011;74845;51.204;22.580;2024-02-21T00:42:28;5.80;;;5.30;;
84614;SDS011;74845;51.204;22.580;2024-02-21T00:44:55;6.88;;;6.20;;
84614;SDS011;74845;51.204;22.580;2024-02-21T00:47:22;6.07;;;5.47;;
84614;SDS011;74845;51.204;22.580;2024-02-21T00:49:49;6.53;;;5.93;;
84614;SDS011;74845;51.204;22.580;2024-02-21T00:52:15;6.63;;;6.03;;
84614;SDS011;74845;51.204;22.580;2024-02-21T00:54:42;6.05;;;5.50;;
84614;SDS011;74845;51.204;22.580;2024-02-21T00:57:19;6.20;;;5.63;;
84614;SDS011;74845;51.204;22.580;2024-02-21T00:59:46;5.30;;;4.88;;
84614;SDS011;74845;51.204;22.580;2024-02-21T01:02:13;6.82;;;6.13;;
84614;SDS011;74845;51.204;22.580;2024-02-21T01:04:40;6.25;;;5.70;;
84614;SDS011;74845;51.204;22.580;2024-02-21T01:07:07;4.20;;;3.90;;
84614;SDS011;74845;51.204;22.580;2024-02-21T01:09:34;5.25;;;4.85;;
84614;SDS011;74845;51.204;22.580;2024-02-21T01:12:00;7.68;;;4.45;;
84614;SDS011;74845;51.204;22.580;2024-02-21T01:14:27;6.03;;;5.38;;
84614;SDS011;74845;51.204;22.580;2024-02-21T01:16:54;5.85;;;5.30;;
84614;SDS011;74845;51.204;22.580;2024-02-21T01:19:21;5.78;;;4.93;;
84614;SDS011;74845;51.204;22.580;2024-02-21T01:21:48;4.53;;;4.13;;
84614;SDS011;74845;51.204;22.580;2024-02-21T01:24:15;4.57;;;4.20;;
84614;SDS011;74845;51.204;22.580;2024-02-21T01:26:42;4.05;;;3.65;;
84614;SDS011;74845;51.204;22.580;2024-02-21T01:29:08;5.45;;;4.72;;
84614;SDS011;74845;51.204;22.580;2024-02-21T01:31:35;6.15;;;5.43;;
84614;SDS011;74845;51.204;22.580;2024-02-21T01:34:02;5.50;;;4.95;;
84614;SDS011;74845;51.204;22.580;2024-02-21T01:36:29;5.88;;;5.30;;
84614;SDS011;74845;51.204;22.580;2024-02-21T01:38:55;6.05;;;4.35;;
84614;SDS011;74845;51.204;22.580;2024-02-21T01:41:22;4.88;;;4.47;;
84614;SDS011;74845;51.204;22.580;2024-02-21T01:43:49;4.90;;;4.50;;
84614;SDS011;74845;51.204;22.580;2024-02-21T01:46:16;4.85;;;3.78;;
84614;SDS011;74845;51.204;22.580;2024-02-21T01:48:43;3.97;;;3.58;;
84614;SDS011;74845;51.204;22.580;2024-02-21T01:51:12;7.75;;;4.65;;
84614;SDS011;74845;51.204;22.580;2024-02-21T01:53:42;5.30;;;4.90;;
84614;SDS011;74845;51.204;22.580;2024-02-21T01:56:09;5.22;;;3.70;;
84614;SDS011;74845;51.204;22.580;2024-02-21T01:58:38;7.75;;;5.05;;
84614;SDS011;74845;51.204;22.580;2024-02-21T02:01:07;6.55;;;4.00;;
84614;SDS011;74845;51.204;22.580;2024-02-21T02:03:34;5.78;;;4.25;;
84614;SDS011;74845;51.204;22.580;2024-02-21T02:06:01;4.05;;;3.50;;
84614;SDS011;74845;51.204;22.580;2024-02-21T02:08:28;5.53;;;3.67;;
84614;SDS011;74845;51.204;22.580;2024-02-21T02:10:55;5.18;;;3.35;;
84614;SDS011;74845;51.204;22.580;2024-02-21T02:13:22;3.33;;;3.03;;
84614;SDS011;74845;51.204;22.580;2024-02-21T02:15:49;3.72;;;3.33;;
84614;SDS011;74845;51.204;22.580;2024-02-21T02:18:17;3.75;;;3.45;;
84614;SDS011;74845;51.204;22.580;2024-02-21T02:20:44;3.15;;;2.85;;
84614;SDS011;74845;51.204;22.580;2024-02-21T02:23:28;5.30;;;3.28;;
84614;SDS011;74845;51.204;22.580;2024-02-21T02:25:56;3.38;;;2.65;;
84614;SDS011;74845;51.204;22.580;2024-02-21T02:28:23;4.45;;;3.30;;
84614;SDS011;74845;51.204;22.580;2024-02-21T02:30:50;5.15;;;2.20;;
84614;SDS011;74845;51.204;22.580;2024-02-21T02:33:17;3.33;;;2.15;;
84614;SDS011;74845;51.204;22.580;2024-02-21T02:35:44;2.45;;;2.25;;
84614;SDS011;74845;51.204;22.580;2024-02-21T02:38:12;2.60;;;1.85;;
84614;SDS011;74845;51.204;22.580;2024-02-21T02:40:40;2.35;;;2.17;;
84614;SDS011;74845;51.204;22.580;2024-02-21T02:43:08;5.88;;;3.47;;
84614;SDS011;74845;51.204;22.580;2024-02-21T02:45:35;4.00;;;3.60;;
84614;SDS011;74845;51.204;22.580;2024-02-21T02:48:02;3.50;;;3.08;;
84614;SDS011;74845;51.204;22.580;2024-02-21T02:50:29;2.42;;;2.25;;
84614;SDS011;74845;51.204;22.580;2024-02-21T02:52:57;7.57;;;2.85;;
84614;SDS011;74845;51.204;22.580;2024-02-21T02:55:24;3.65;;;2.53;;
84614;SDS011;74845;51.204;22.580;2024-02-21T02:57:53;3.20;;;2.42;;
84614;SDS011;74845;51.204;22.580;2024-02-21T03:00:20;6.95;;;3.28;;
84614;SDS011;74845;51.204;22.580;2024-02-21T03:02:48;2.20;;;1.90;;
84614;SDS011;74845;51.204;22.580;2024-02-21T03:05:16;3.20;;;2.05;;
84614;SDS011;74845;51.204;22.580;2024-02-21T03:07:45;4.65;;;2.80;;
84614;SDS011;74845;51.204;22.580;2024-02-21T03:10:13;4.22;;;3.38;;
84614;SDS011;74845;51.204;22.580;2024-02-21T03:12:43;2.22;;;2.05;;
84614;SDS011;74845;51.204;22.580;2024-02-21T03:15:11;5.97;;;2.85;;
84614;SDS011;74845;51.204;22.580;2024-02-21T03:17:39;4.13;;;3.13;;
84614;SDS011;74845;51.204;22.580;2024-02-21T03:20:06;3.85;;;3.45;;
84614;SDS011;74845;51.204;22.580;2024-02-21T03:22:39;7.50;;;2.80;;
84614;SDS011;74845;51.204;22.580;2024-02-21T03:25:07;3.35;;;3.10;;
84614;SDS011;74845;51.204;22.580;2024-02-21T03:27:34;8.40;;;3.47;;
84614;SDS011;74845;51.204;22.580;2024-02-21T03:30:01;5.20;;;3.65;;
84614;SDS011;74845;51.204;22.580;2024-02-21T03:32:28;3.30;;;3.00;;
84614;SDS011;74845;51.204;22.580;2024-02-21T03:34:56;4.45;;;3.33;;
84614;SDS011;74845;51.204;22.580;2024-02-21T03:37:23;3.55;;;3.10;;
84614;SDS011;74845;51.204;22.580;2024-02-21T03:39:50;6.10;;;3.65;;
84614;SDS011;74845;51.204;22.580;2024-02-21T03:42:17;6.03;;;3.30;;
84614;SDS011;74845;51.204;22.580;2024-02-21T03:44:43;4.35;;;3.55;;
84614;SDS011;74845;51.204;22.580;2024-02-21T03:47:10;6.60;;;3.50;;
84614;SDS011;74845;51.204;22.580;2024-02-21T03:49:38;4.47;;;2.45;;
84614;SDS011;74845;51.204;22.580;2024-02-21T03:52:05;3.17;;;2.28;;
84614;SDS011;74845;51.204;22.580;2024-02-21T03:54:32;4.60;;;3.35;;
84614;SDS011;74845;51.204;22.580;2024-02-21T03:56:59;2.97;;;2.60;;
84614;SDS011;74845;51.204;22.580;2024-02-21T03:59:26;3.05;;;1.95;;
84614;SDS011;74845;51.204;22.580;2024-02-21T04:01:53;3.80;;;3.20;;
84614;SDS011;74845;51.204;22.580;2024-02-21T04:04:20;3.15;;;2.95;;
84614;SDS011;74845;51.204;22.580;2024-02-21T04:06:48;4.40;;;3.35;;
84614;SDS011;74845;51.204;22.580;2024-02-21T04:09:15;4.28;;;3.67;;
84614;SDS011;74845;51.204;22.580;2024-02-21T04:11:42;4.55;;;3.72;;
84614;SDS011;74845;51.204;22.580;2024-02-21T04:14:09;4.80;;;4.05;;
84614;SDS011;74845;51.204;22.580;2024-02-21T04:16:38;4.38;;;3.20;;
84614;SDS011;74845;51.204;22.580;2024-02-21T04:19:05;7.28;;;4.28;;
84614;SDS011;74845;51.204;22.580;2024-02-21T04:21:32;5.70;;;3.63;;
84614;SDS011;74845;51.204;22.580;2024-02-21T04:23:59;3.35;;;3.05;;
84614;SDS011;74845;51.204;22.580;2024-02-21T04:26:27;4.90;;;4.22;;
84614;SDS011;74845;51.204;22.580;2024-02-21T04:28:54;3.03;;;2.17;;
84614;SDS011;74845;51.204;22.580;2024-02-21T04:31:21;4.40;;;2.90;;
84614;SDS011;74845;51.204;22.580;2024-02-21T04:33:48;3.10;;;2.78;;
84614;SDS011;74845;51.204;22.580;2024-02-21T04:36:15;4.25;;;3.95;;
84614;SDS011;74845;51.204;22.580;2024-02-21T04:38:42;4.22;;;2.78;;
84614;SDS011;74845;51.204;22.580;2024-02-21T04:41:08;3.92;;;3.10;;
84614;SDS011;74845;51.204;22.580;2024-02-21T04:43:36;4.95;;;3.40;;
84614;SDS011;74845;51.204;22.580;2024-02-21T04:46:04;4.05;;;3.28;;
84614;SDS011;74845;51.204;22.580;2024-02-21T04:48:31;4.18;;;3.88;;
84614;SDS011;74845;51.204;22.580;2024-02-21T04:50:57;3.97;;;3.25;;
84614;SDS011;74845;51.204;22.580;2024-02-21T04:53:24;4.40;;;3.60;;
84614;SDS011;74845;51.204;22.580;2024-02-21T04:55:51;4.85;;;4.30;;
84614;SDS011;74845;51.204;22.580;2024-02-21T04:58:18;3.85;;;3.42;;
84614;SDS011;74845;51.204;22.580;2024-02-21T05:00:45;4.22;;;3.75;;
84614;SDS011;74845;51.204;22.580;2024-02-21T05:03:12;4.95;;;3.00;;
84614;SDS011;74845;51.204;22.580;2024-02-21T05:05:38;4.47;;;3.58;;
84614;SDS011;74845;51.204;22.580;2024-02-21T05:08:05;4.47;;;3.03;;
84614;SDS011;74845;51.204;22.580;2024-02-21T05:10:32;4.70;;;3.40;;
84614;SDS011;74845;51.204;22.580;2024-02-21T05:12:59;4.88;;;3.00;;
84614;SDS011;74845;51.204;22.580;2024-02-21T05:15:26;5.82;;;3.65;;
84614;SDS011;74845;51.204;22.580;2024-02-21T05:17:53;3.35;;;2.75;;
84614;SDS011;74845;51.204;22.580;2024-02-21T05:20:20;2.83;;;2.50;;
84614;SDS011;74845;51.204;22.580;2024-02-21T05:22:48;3.00;;;2.80;;
84614;SDS011;74845;51.204;22.580;2024-02-21T05:25:15;3.30;;;2.80;;
84614;SDS011;74845;51.204;22.580;2024-02-21T05:27:42;4.13;;;3.47;;
84614;SDS011;74845;51.204;22.580;2024-02-21T05:30:08;5.60;;;3.50;;
84614;SDS011;74845;51.204;22.580;2024-02-21T05:32:36;4.10;;;3.53;;
84614;SDS011;74845;51.204;22.580;2024-02-21T05:35:03;3.35;;;3.03;;
84614;SDS011;74845;51.204;22.580;2024-02-21T05:37:30;4.32;;;3.95;;
84614;SDS011;74845;51.204;22.580;2024-02-21T05:39:57;4.30;;;2.90;;
84614;SDS011;74845;51.204;22.580;2024-02-21T05:42:24;6.72;;;3.40;;
84614;SDS011;74845;51.204;22.580;2024-02-21T05:44:50;4.05;;;3.53;;
84614;SDS011;74845;51.204;22.580;2024-02-21T05:47:17;3.40;;;3.10;;
84614;SDS011;74845;51.204;22.580;2024-02-21T05:49:47;4.25;;;3.58;;
84614;SDS011;74845;51.204;22.580;2024-02-21T05:52:14;3.38;;;3.08;;
84614;SDS011;74845;51.204;22.580;2024-02-21T05:54:41;3.75;;;3.30;;
84614;SDS011;74845;51.204;22.580;2024-02-21T05:57:08;3.35;;;2.90;;
84614;SDS011;74845;51.204;22.580;2024-02-21T05:59:37;5.20;;;4.03;;
84614;SDS011;74845;51.204;22.580;2024-02-21T06:02:07;7.40;;;3.70;;
84614;SDS011;74845;51.204;22.580;2024-02-21T06:04:35;5.97;;;3.17;;
84614;SDS011;74845;51.204;22.580;2024-02-21T06:07:03;5.43;;;4.15;;
84614;SDS011;74845;51.204;22.580;2024-02-21T06:09:30;2.88;;;2.67;;
84614;SDS011;74845;51.204;22.580;2024-02-21T06:11:58;3.92;;;3.63;;
84614;SDS011;74845;51.204;22.580;2024-02-21T06:14:26;6.40;;;3.25;;
84614;SDS011;74845;51.204;22.580;2024-02-21T06:16:53;5.80;;;4.93;;
84614;SDS011;74845;51.204;22.580;2024-02-21T06:19:20;4.38;;;3.83;;
84614;SDS011;74845;51.204;22.580;2024-02-21T06:21:47;7.72;;;4.25;;
84614;SDS011;74845;51.204;22.580;2024-02-21T06:24:14;4.35;;;3.95;;
84614;SDS011;74845;51.204;22.580;2024-02-21T06:26:41;3.13;;;2.83;;
84614;SDS011;74845;51.204;22.580;2024-02-21T06:29:08;5.25;;;4.65;;
84614;SDS011;74845;51.204;22.580;2024-02-21T06:31:35;5.03;;;4.18;;
84614;SDS011;74845;51.204;22.580;2024-02-21T06:34:02;6.68;;;4.00;;
84614;SDS011;74845;51.204;22.580;2024-02-21T06:36:29;4.13;;;3.72;;
84614;SDS011;74845;51.204;22.580;2024-02-21T06:38:56;6.10;;;4.38;;
84614;SDS011;74845;51.204;22.580;2024-02-21T06:41:23;4.57;;;4.00;;
84614;SDS011;74845;51.204;22.580;2024-02-21T06:43:50;3.33;;;2.90;;
84614;SDS011;74845;51.204;22.580;2024-02-21T06:46:24;6.50;;;4.00;;
84614;SDS011;74845;51.204;22.580;2024-02-21T06:48:52;7.50;;;5.15;;
84614;SDS011;74845;51.204;22.580;2024-02-21T06:51:20;5.05;;;4.43;;
84614;SDS011;74845;51.204;22.580;2024-02-21T06:53:46;4.28;;;3.88;;
84614;SDS011;74845;51.204;22.580;2024-02-21T06:56:13;6.57;;;4.38;;
84614;SDS011;74845;51.204;22.580;2024-02-21T06:58:40;6.22;;;4.93;;
84614;SDS011;74845;51.204;22.580;2024-02-21T07:01:07;4.60;;;4.20;;
84614;SDS011;74845;51.204;22.580;2024-02-21T07:03:35;4.65;;;4.25;;
84614;SDS011;74845;51.204;22.580;2024-02-21T07:06:02;3.78;;;3.47;;
84614;SDS011;74845;51.204;22.580;2024-02-21T07:08:29;4.70;;;4.03;;
84614;SDS011;74845;51.204;22.580;2024-02-21T07:10:56;6.10;;;4.45;;
84614;SDS011;74845;51.204;22.580;2024-02-21T07:13:23;6.30;;;4.10;;
84614;SDS011;74845;51.204;22.580;2024-02-21T07:15:50;4.72;;;4.30;;
84614;SDS011;74845;51.204;22.580;2024-02-21T07:18:17;6.65;;;4.53;;
84614;SDS011;74845;51.204;22.580;2024-02-21T07:20:47;4.05;;;3.75;;
84614;SDS011;74845;51.204;22.580;2024-02-21T07:23:13;5.07;;;4.57;;
84614;SDS011;74845;51.204;22.580;2024-02-21T07:25:40;4.70;;;4.18;;
84614;SDS011;74845;51.204;22.580;2024-02-21T07:28:07;6.25;;;4.50;;
84614;SDS011;74845;51.204;22.580;2024-02-21T07:30:34;5.05;;;4.60;;
84614;SDS011;74845;51.204;22.580;2024-02-21T07:33:01;9.02;;;4.72;;
84614;SDS011;74845;51.204;22.580;2024-02-21T07:35:28;6.50;;;4.55;;
84614;SDS011;74845;51.204;22.580;2024-02-21T07:37:55;6.63;;;5.97;;
84614;SDS011;74845;51.204;22.580;2024-02-21T07:40:24;7.65;;;4.78;;
84614;SDS011;74845;51.204;22.580;2024-02-21T07:45:21;5.25;;;4.75;;
84614;SDS011;74845;51.204;22.580;2024-02-21T07:47:50;5.05;;;4.55;;
84614;SDS011;74845;51.204;22.580;2024-02-21T07:50:17;9.63;;;6.40;;
84614;SDS011;74845;51.204;22.580;2024-02-21T07:52:44;8.75;;;5.85;;
84614;SDS011;74845;51.204;22.580;2024-02-21T07:55:11;6.53;;;5.40;;
84614;SDS011;74845;51.204;22.580;2024-02-21T07:57:39;9.63;;;5.78;;
84614;SDS011;74845;51.204;22.580;2024-02-21T08:00:06;9.30;;;5.85;;
84614;SDS011;74845;51.204;22.580;2024-02-21T08:02:38;6.65;;;5.75;;
84614;SDS011;74845;51.204;22.580;2024-02-21T08:05:05;6.30;;;5.63;;
84614;SDS011;74845;51.204;22.580;2024-02-21T08:07:32;8.43;;;5.93;;
84614;SDS011;74845;51.204;22.580;2024-02-21T08:09:59;9.02;;;6.43;;
84614;SDS011;74845;51.204;22.580;2024-02-21T08:12:26;8.82;;;6.43;;
84614;SDS011;74845;51.204;22.580;2024-02-21T08:14:53;9.05;;;6.85;;
84614;SDS011;74845;51.204;22.580;2024-02-21T08:17:20;11.05;;;7.07;;
84614;SDS011;74845;51.204;22.580;2024-02-21T08:19:47;9.43;;;6.78;;
84614;SDS011;74845;51.204;22.580;2024-02-21T08:22:15;6.82;;;6.28;;
84614;SDS011;74845;51.204;22.580;2024-02-21T08:24:43;8.57;;;6.78;;
84614;SDS011;74845;51.204;22.580;2024-02-21T08:27:09;10.38;;;7.50;;
84614;SDS011;74845;51.204;22.580;2024-02-21T08:29:36;9.48;;;8.18;;
84614;SDS011;74845;51.204;22.580;2024-02-21T08:32:03;7.88;;;6.72;;
84614;SDS011;74845;51.204;22.580;2024-02-21T08:34:30;9.50;;;8.23;;
84614;SDS011;74845;51.204;22.580;2024-02-21T08:37:00;8.85;;;7.40;;
84614;SDS011;74845;51.204;22.580;2024-02-21T08:39:28;13.38;;;7.82;;
84614;SDS011;74845;51.204;22.580;2024-02-21T08:44:25;7.40;;;5.57;;
84614;SDS011;74845;51.204;22.580;2024-02-21T08:46:55;11.57;;;6.82;;
84614;SDS011;74845;51.204;22.580;2024-02-21T08:49:23;9.65;;;6.03;;
84614;SDS011;74845;51.204;22.580;2024-02-21T08:51:57;9.05;;;6.60;;
84614;SDS011;74845;51.204;22.580;2024-02-21T08:54:24;7.95;;;6.32;;
84614;SDS011;74845;51.204;22.580;2024-02-21T08:56:51;11.73;;;6.30;;
84614;SDS011;74845;51.204;22.580;2024-02-21T08:59:17;8.75;;;6.47;;
84614;SDS011;74845;51.204;22.580;2024-02-21T09:01:44;13.93;;;7.70;;
84614;SDS011;74845;51.204;22.580;2024-02-21T09:04:11;10.13;;;7.00;;
84614;SDS011;74845;51.204;22.580;2024-02-21T09:06:39;11.32;;;7.13;;
84614;SDS011;74845;51.204;22.580;2024-02-21T09:11:36;7.68;;;6.75;;
84614;SDS011;74845;51.204;22.580;2024-02-21T09:14:04;10.40;;;6.88;;
84614;SDS011;74845;51.204;22.580;2024-02-21T09:16:34;8.63;;;7.75;;
84614;SDS011;74845;51.204;22.580;2024-02-21T09:19:01;11.85;;;7.15;;
84614;SDS011;74845;51.204;22.580;2024-02-21T09:21:28;9.43;;;8.13;;
84614;SDS011;74845;51.204;22.580;2024-02-21T09:23:55;12.30;;;7.82;;
84614;SDS011;74845;51.204;22.580;2024-02-21T09:26:25;9.70;;;8.00;;
84614;SDS011;74845;51.204;22.580;2024-02-21T09:28:53;9.20;;;8.05;;
84614;SDS011;74845;51.204;22.580;2024-02-21T09:31:20;11.90;;;8.27;;
84614;SDS011;74845;51.204;22.580;2024-02-21T09:33:47;10.63;;;7.93;;
84614;SDS011;74845;51.204;22.580;2024-02-21T09:36:14;11.10;;;8.18;;
84614;SDS011;74845;51.204;22.580;2024-02-21T09:38:41;11.13;;;7.78;;
84614;SDS011;74845;51.204;22.580;2024-02-21T09:43:51;9.23;;;6.97;;
84614;SDS011;74845;51.204;22.580;2024-02-21T09:46:27;9.52;;;7.60;;
84614;SDS011;74845;51.204;22.580;2024-02-21T09:51:49;13.35;;;7.63;;
84614;SDS011;74845;51.204;22.580;2024-02-21T09:54:19;11.57;;;7.65;;
84614;SDS011;74845;51.204;22.580;2024-02-21T09:56:48;9.85;;;7.72;;
84614;SDS011;74845;51.204;22.580;2024-02-21T09:59:16;11.18;;;8.02;;
84614;SDS011;74845;51.204;22.580;2024-02-21T10:01:43;8.48;;;7.47;;
84614;SDS011;74845;51.204;22.580;2024-02-21T10:04:11;10.80;;;8.05;;
84614;SDS011;74845;51.204;22.580;2024-02-21T10:06:38;11.27;;;7.63;;
84614;SDS011;74845;51.204;22.580;2024-02-21T10:09:06;8.10;;;7.32;;
84614;SDS011;74845;51.204;22.580;2024-02-21T10:11:33;12.20;;;7.63;;
84614;SDS011;74845;51.204;22.580;2024-02-21T10:14:04;10.40;;;7.40;;
84614;SDS011;74845;51.204;22.580;2024-02-21T10:16:34;10.05;;;6.63;;
84614;SDS011;74845;51.204;22.580;2024-02-21T10:19:02;8.35;;;6.97;;
84614;SDS011;74845;51.204;22.580;2024-02-21T10:21:30;9.88;;;7.53;;
84614;SDS011;74845;51.204;22.580;2024-02-21T10:23:57;9.77;;;7.95;;
84614;SDS011;74845;51.204;22.580;2024-02-21T10:26:24;12.82;;;9.55;;
84614;SDS011;74845;51.204;22.580;2024-02-21T10:28:51;10.98;;;8.23;;
84614;SDS011;74845;51.204;22.580;2024-02-21T10:31:25;12.52;;;9.90;;
84614;SDS011;74845;51.204;22.580;2024-02-21T10:33:54;14.57;;;9.10;;
84614;SDS011;74845;51.204;22.580;2024-02-21T10:36:25;9.75;;;8.38;;
84614;SDS011;74845;51.204;22.580;2024-02-21T10:38:53;7.80;;;7.13;;
84614;SDS011;74845;51.204;22.580;2024-02-21T10:41:23;11.98;;;9.25;;
84614;SDS011;74845;51.204;22.580;2024-02-21T10:43:58;9.80;;;8.02;;
84614;SDS011;74845;51.204;22.580;2024-02-21T10:46:28;9.85;;;7.55;;
84614;SDS011;74845;51.204;22.580;2024-02-21T10:49:10;9.93;;;8.82;;
84614;SDS011;74845;51.204;22.580;2024-02-21T10:51:41;7.60;;;6.88;;
84614;SDS011;74845;51.204;22.580;2024-02-21T10:54:17;9.82;;;7.57;;
84614;SDS011;74845;51.204;22.580;2024-02-21T10:56:54;9.27;;;7.97;;
84614;SDS011;74845;51.204;22.580;2024-02-21T10:59:24;11.00;;;8.68;;
84614;SDS011;74845;51.204;22.580;2024-02-21T11:01:53;12.93;;;8.38;;
84614;SDS011;74845;51.204;22.580;2024-02-21T11:04:25;15.77;;;10.02;;
84614;SDS011;74845;51.204;22.580;2024-02-21T11:06:53;9.82;;;8.55;;
84614;SDS011;74845;51.204;22.580;2024-02-21T11:09:29;10.80;;;9.23;;
84614;SDS011;74845;51.204;22.580;2024-02-21T11:11:58;11.13;;;8.77;;
84614;SDS011;74845;51.204;22.580;2024-02-21T11:14:30;11.27;;;9.90;;
84614;SDS011;74845;51.204;22.580;2024-02-21T11:17:13;12.90;;;10.52;;
84614;SDS011;74845;51.204;22.580;2024-02-21T11:19:45;10.25;;;8.70;;
84614;SDS011;74845;51.204;22.580;2024-02-21T11:22:18;10.60;;;9.48;;
84614;SDS011;74845;51.204;22.580;2024-02-21T11:24:49;12.77;;;9.00;;
84614;SDS011;74845;51.204;22.580;2024-02-21T11:27:18;13.30;;;10.38;;
84614;SDS011;74845;51.204;22.580;2024-02-21T11:29:56;15.80;;;9.38;;
84614;SDS011;74845;51.204;22.580;2024-02-21T11:32:25;9.80;;;8.52;;
84614;SDS011;74845;51.204;22.580;2024-02-21T11:34:56;9.55;;;8.35;;
84614;SDS011;74845;51.204;22.580;2024-02-21T11:37:27;10.40;;;8.73;;
84614;SDS011;74845;51.204;22.580;2024-02-21T11:39:55;11.70;;;8.68;;
84614;SDS011;74845;51.204;22.580;2024-02-21T11:42:22;13.88;;;8.20;;
84614;SDS011;74845;51.204;22.580;2024-02-21T11:44:49;12.18;;;8.60;;
84614;SDS011;74845;51.204;22.580;2024-02-21T11:47:15;11.85;;;8.32;;
84614;SDS011;74845;51.204;22.580;2024-02-21T11:49:47;10.98;;;8.18;;
84614;SDS011;74845;51.204;22.580;2024-02-21T11:52:16;9.35;;;8.18;;
84614;SDS011;74845;51.204;22.580;2024-02-21T11:54:45;8.30;;;7.28;;
84614;SDS011;74845;51.204;22.580;2024-02-21T11:57:12;10.57;;;7.43;;
84614;SDS011;74845;51.204;22.580;2024-02-21T11:59:39;9.20;;;8.10;;
84614;SDS011;74845;51.204;22.580;2024-02-21T12:02:07;9.77;;;7.25;;
84614;SDS011;74845;51.204;22.580;2024-02-21T12:04:34;9.60;;;6.88;;
84614;SDS011;74845;51.204;22.580;2024-02-21T12:07:03;13.77;;;7.30;;
84614;SDS011;74845;51.204;22.580;2024-02-21T12:09:31;10.13;;;7.53;;
84614;SDS011;74845;51.204;22.580;2024-02-21T12:14:27;7.60;;;6.07;;
84614;SDS011;74845;51.204;22.580;2024-02-21T12:16:54;7.13;;;5.97;;
84614;SDS011;74845;51.204;22.580;2024-02-21T12:19:21;7.80;;;6.25;;
84614;SDS011;74845;51.204;22.580;2024-02-21T12:21:49;6.43;;;5.68;;
84614;SDS011;74845;51.204;22.580;2024-02-21T12:24:21;6.22;;;5.03;;
84614;SDS011;74845;51.204;22.580;2024-02-21T12:26:50;7.22;;;5.53;;
84614;SDS011;74845;51.204;22.580;2024-02-21T12:29:21;6.65;;;5.82;;
84614;SDS011;74845;51.204;22.580;2024-02-21T12:31:49;9.37;;;6.23;;
84614;SDS011;74845;51.204;22.580;2024-02-21T12:34:17;8.85;;;4.97;;
84614;SDS011;74845;51.204;22.580;2024-02-21T12:37:00;7.97;;;6.03;;
84614;SDS011;74845;51.204;22.580;2024-02-21T12:39:27;6.97;;;6.30;;
84614;SDS011;74845;51.204;22.580;2024-02-21T12:41:55;6.95;;;6.13;;
84614;SDS011;74845;51.204;22.580;2024-02-21T12:46:52;8.00;;;6.25;;
84614;SDS011;74845;51.204;22.580;2024-02-21T12:49:21;9.85;;;6.50;;
84614;SDS011;74845;51.204;22.580;2024-02-21T12:51:48;8.20;;;6.18;;
84614;SDS011;74845;51.204;22.580;2024-02-21T12:54:15;7.38;;;6.47;;
84614;SDS011;74845;51.204;22.580;2024-02-21T12:56:42;8.13;;;6.03;;
84614;SDS011;74845;51.204;22.580;2024-02-21T12:59:09;11.45;;;6.65;;
84614;SDS011;74845;51.204;22.580;2024-02-21T13:01:36;9.55;;;6.90;;
84614;SDS011;74845;51.204;22.580;2024-02-21T13:04:05;7.80;;;6.03;;
84614;SDS011;74845;51.204;22.580;2024-02-21T13:06:32;9.80;;;6.97;;
84614;SDS011;74845;51.204;22.580;2024-02-21T13:08:59;7.28;;;6.57;;
84614;SDS011;74845;51.204;22.580;2024-02-21T13:11:30;6.57;;;5.75;;
84614;SDS011;74845;51.204;22.580;2024-02-21T13:13:58;8.50;;;6.82;;
84614;SDS011;74845;51.204;22.580;2024-02-21T13:16:26;7.50;;;6.65;;
84614;SDS011;74845;51.204;22.580;2024-02-21T13:18:54;12.57;;;6.82;;
84614;SDS011;74845;51.204;22.580;2024-02-21T13:21:21;9.00;;;5.90;;
84614;SDS011;74845;51.204;22.580;2024-02-21T13:23:48;7.50;;;5.97;;
84614;SDS011;74845;51.204;22.580;2024-02-21T13:26:15;11.70;;;6.47;;
84614;SDS011;74845;51.204;22.580;2024-02-21T13:28:42;8.68;;;5.63;;
84614;SDS011;74845;51.204;22.580;2024-02-21T13:31:11;11.57;;;6.90;;
84614;SDS011;74845;51.204;22.580;2024-02-21T13:33:39;9.55;;;6.90;;
84614;SDS011;74845;51.204;22.580;2024-02-21T13:36:06;7.78;;;6.50;;
84614;SDS011;74845;51.204;22.580;2024-02-21T13:38:33;9.35;;;6.10;;
84614;SDS011;74845;51.204;22.580;2024-02-21T13:41:00;12.85;;;8.05;;
84614;SDS011;74845;51.204;22.580;2024-02-21T13:43:27;8.70;;;6.60;;
84614;SDS011;74845;51.204;22.580;2024-02-21T13:45:58;9.75;;;7.60;;
84614;SDS011;74845;51.204;22.580;2024-02-21T13:48:26;9.13;;;7.55;;
84614;SDS011;74845;51.204;22.580;2024-02-21T13:50:55;9.13;;;7.65;;
84614;SDS011;74845;51.204;22.580;2024-02-21T13:53:22;11.40;;;7.55;;
84614;SDS011;74845;51.204;22.580;2024-02-21T13:55:49;9.65;;;6.55;;
84614;SDS011;74845;51.204;22.580;2024-02-21T13:58:16;11.75;;;8.02;;
84614;SDS011;74845;51.204;22.580;2024-02-21T14:00:44;7.82;;;6.40;;
84614;SDS011;74845;51.204;22.580;2024-02-21T14:03:11;10.73;;;8.10;;
84614;SDS011;74845;51.204;22.580;2024-02-21T14:05:38;10.88;;;7.00;;
84614;SDS011;74845;51.204;22.580;2024-02-21T14:08:09;13.88;;;7.97;;
84614;SDS011;74845;51.204;22.580;2024-02-21T14:10:36;10.27;;;6.22;;
84614;SDS011;74845;51.204;22.580;2024-02-21T14:13:04;10.43;;;7.30;;
84614;SDS011;74845;51.204;22.580;2024-02-21T14:15:30;8.43;;;6.03;;
84614;SDS011;74845;51.204;22.580;2024-02-21T14:17:57;9.63;;;7.22;;
84614;SDS011;74845;51.204;22.580;2024-02-21T14:20:24;10.88;;;7.70;;
84614;SDS011;74845;51.204;22.580;2024-02-21T14:22:51;10.43;;;6.85;;
84614;SDS011;74845;51.204;22.580;2024-02-21T14:25:18;13.10;;;8.60;;
84614;SDS011;74845;51.204;22.580;2024-02-21T14:27:45;11.00;;;7.65;;
84614;SDS011;74845;51.204;22.580;2024-02-21T14:30:12;9.93;;;7.90;;
84614;SDS011;74845;51.204;22.580;2024-02-21T14:32:40;9.38;;;5.85;;
84614;SDS011;74845;51.204;22.580;2024-02-21T14:35:11;7.95;;;6.72;;
84614;SDS011;74845;51.204;22.580;2024-02-21T14:37:38;8.80;;;6.43;;
84614;SDS011;74845;51.204;22.580;2024-02-21T14:40:05;9.82;;;6.47;;
84614;SDS011;74845;51.204;22.580;2024-02-21T14:42:32;11.30;;;7.82;;
84614;SDS011;74845;51.204;22.580;2024-02-21T14:45:00;12.15;;;8.05;;
84614;SDS011;74845;51.204;22.580;2024-02-21T14:47:31;12.15;;;7.88;;
84614;SDS011;74845;51.204;22.580;2024-02-21T14:49:58;11.43;;;7.70;;
84614;SDS011;74845;51.204;22.580;2024-02-21T14:52:26;11.38;;;6.95;;